sensor_id;sensor_type;location;lat;lon;timestamp;pressure;altitude;pressure_sealevel;temperature;humidity
32638;BME280;19045;52.268;10.506;2023-05-23T00:01:20;100321.75;;;17.25;100.00
32638;BME280;19045;52.268;10.506;2023-05-23T00:03:46;100327.06;;;17.30;100.00
32638;BME280;19045;52.268;10.506;2023-05-23T00:06:13;100320.72;;;17.35;100.00
32638;BME280;19045;52.268;10.506;2023-05-23T00:08:40;100317.31;;;17.43;100.00
32638;BME280;19045;52.268;10.506;2023-05-23T00:11:08;100324.22;;;17.49;100.00
32638;BME280;19045;52.268;10.506;2023-05-23T00:13:34;100315.47;;;17.52;100.00
32638;BME280;19045;52.268;10.506;2023-05-23T00:16:01;100309.16;;;17.43;100.00
32638;BME280;19045;52.268;10.506;2023-05-23T00:18:27;100303.03;;;17.37;100.00
32638;BME280;19045;52.268;10.506;2023-05-23T00:20:54;100293.69;;;17.30;100.00
32638;BME280;19045;52.268;10.506;2023-05-23T00:23:23;100300.31;;;17.24;100.00
32638;BME280;19045;52.268;10.506;2023-05-23T00:25:49;100295.69;;;17.24;100.00
32638;BME280;19045;52.268;10.506;2023-05-23T00:28:18;100298.03;;;17.17;100.00
32638;BME280;19045;52.268;10.506;2023-05-23T00:30:45;100306.38;;;17.07;100.00
32638;BME280;19045;52.268;10.506;2023-05-23T00:33:13;100309.81;;;16.99;100.00
32638;BME280;19045;52.268;10.506;2023-05-23T00:35:40;100320.75;;;16.94;100.00
32638;BME280;19045;52.268;10.506;2023-05-23T00:38:08;100308.31;;;16.93;100.00
32638;BME280;19045;52.268;10.506;2023-05-23T00:40:35;100320.53;;;16.90;100.00
32638;BME280;19045;52.268;10.506;2023-05-23T00:43:02;100327.09;;;16.89;100.00
32638;BME280;19045;52.268;10.506;2023-05-23T00:45:30;100325.09;;;16.95;100.00
32638;BME280;19045;52.268;10.506;2023-05-23T00:47:57;100324.59;;;17.07;100.00
32638;BME280;19045;52.268;10.506;2023-05-23T00:50:24;100325.91;;;17.09;100.00
32638;BME280;19045;52.268;10.506;2023-05-23T00:52:54;100331.31;;;17.09;100.00
32638;BME280;19045;52.268;10.506;2023-05-23T00:55:21;100336.84;;;17.04;100.00
32638;BME280;19045;52.268;10.506;2023-05-23T00:57:48;100337.84;;;16.94;100.00
32638;BME280;19045;52.268;10.506;2023-05-23T01:00:16;100331.13;;;16.92;100.00
32638;BME280;19045;52.268;10.506;2023-05-23T01:02:46;100335.84;;;16.86;100.00
32638;BME280;19045;52.268;10.506;2023-05-23T01:05:16;100343.88;;;16.78;100.00
32638;BME280;19045;52.268;10.506;2023-05-23T01:07:43;100336.31;;;16.75;100.00
32638;BME280;19045;52.268;10.506;2023-05-23T01:10:11;100339.56;;;16.77;100.00
32638;BME280;19045;52.268;10.506;2023-05-23T01:12:45;100348.69;;;16.81;100.00
32638;BME280;19045;52.268;10.506;2023-05-23T01:15:18;100343.06;;;16.91;100.00
32638;BME280;19045;52.268;10.506;2023-05-23T01:17:51;100337.25;;;16.97;100.00
32638;BME280;19045;52.268;10.506;2023-05-23T01:20:21;100334.25;;;16.99;100.00
32638;BME280;19045;52.268;10.506;2023-05-23T01:23:09;100336.94;;;16.99;100.00
32638;BME280;19045;52.268;10.506;2023-05-23T01:26:17;100334.94;;;17.04;100.00
32638;BME280;19045;52.268;10.506;2023-05-23T01:28:47;100343.78;;;17.10;100.00
32638;BME280;19045;52.268;10.506;2023-05-23T01:31:16;100344.50;;;17.16;100.00
32638;BME280;19045;52.268;10.506;2023-05-23T01:33:44;100341.97;;;17.05;100.00
32638;BME280;19045;52.268;10.506;2023-05-23T01:36:12;100343.28;;;17.08;100.00
32638;BME280;19045;52.268;10.506;2023-05-23T01:38:39;100341.16;;;17.05;100.00
32638;BME280;19045;52.268;10.506;2023-05-23T01:41:08;100334.84;;;17.10;100.00
32638;BME280;19045;52.268;10.506;2023-05-23T01:43:34;100335.34;;;17.12;100.00
32638;BME280;19045;52.268;10.506;2023-05-23T01:46:03;100340.06;;;16.92;100.00
32638;BME280;19045;52.268;10.506;2023-05-23T01:48:31;100335.03;;;16.86;100.00
32638;BME280;19045;52.268;10.506;2023-05-23T01:50:58;100341.66;;;16.80;100.00
32638;BME280;19045;52.268;10.506;2023-05-23T01:53:25;100340.03;;;16.65;100.00
32638;BME280;19045;52.268;10.506;2023-05-23T01:55:52;100334.94;;;16.64;100.00
32638;BME280;19045;52.268;10.506;2023-05-23T01:58:19;100337.50;;;16.55;100.00
32638;BME280;19045;52.268;10.506;2023-05-23T02:00:46;100335.06;;;16.53;100.00
32638;BME280;19045;52.268;10.506;2023-05-23T02:03:15;100333.75;;;16.51;100.00
32638;BME280;19045;52.268;10.506;2023-05-23T02:05:41;100339.47;;;16.49;100.00
32638;BME280;19045;52.268;10.506;2023-05-23T02:08:08;100341.75;;;16.42;100.00
32638;BME280;19045;52.268;10.506;2023-05-23T02:10:34;100335.84;;;16.40;100.00
32638;BME280;19045;52.268;10.506;2023-05-23T02:13:01;100334.66;;;16.46;100.00
32638;BME280;19045;52.268;10.506;2023-05-23T02:15:28;100335.53;;;16.42;100.00
32638;BME280;19045;52.268;10.506;2023-05-23T02:17:55;100336.22;;;16.34;100.00
32638;BME280;19045;52.268;10.506;2023-05-23T02:20:23;100338.22;;;16.28;100.00
32638;BME280;19045;52.268;10.506;2023-05-23T02:22:50;100334.50;;;16.38;100.00
32638;BME280;19045;52.268;10.506;2023-05-23T02:25:16;100334.00;;;16.36;100.00
32638;BME280;19045;52.268;10.506;2023-05-23T02:27:43;100330.44;;;16.40;100.00
32638;BME280;19045;52.268;10.506;2023-05-23T02:30:10;100336.41;;;16.37;100.00
32638;BME280;19045;52.268;10.506;2023-05-23T02:32:37;100332.72;;;16.33;100.00
32638;BME280;19045;52.268;10.506;2023-05-23T02:35:04;100336.94;;;16.39;100.00
32638;BME280;19045;52.268;10.506;2023-05-23T02:37:32;100342.84;;;16.41;100.00
32638;BME280;19045;52.268;10.506;2023-05-23T02:39:59;100343.84;;;16.32;100.00
32638;BME280;19045;52.268;10.506;2023-05-23T02:42:26;100343.97;;;16.40;100.00
32638;BME280;19045;52.268;10.506;2023-05-23T02:44:52;100350.72;;;16.43;100.00
32638;BME280;19045;52.268;10.506;2023-05-23T02:47:19;100347.56;;;16.36;100.00
32638;BME280;19045;52.268;10.506;2023-05-23T02:49:45;100357.31;;;16.37;100.00
32638;BME280;19045;52.268;10.506;2023-05-23T02:52:12;100355.22;;;16.15;100.00
32638;BME280;19045;52.268;10.506;2023-05-23T02:54:40;100357.72;;;16.12;100.00
32638;BME280;19045;52.268;10.506;2023-05-23T02:57:07;100356.34;;;15.95;100.00
32638;BME280;19045;52.268;10.506;2023-05-23T02:59:34;100349.91;;;15.73;100.00
32638;BME280;19045;52.268;10.506;2023-05-23T03:02:01;100346.25;;;15.64;100.00
32638;BME280;19045;52.268;10.506;2023-05-23T03:04:27;100360.38;;;15.61;100.00
32638;BME280;19045;52.268;10.506;2023-05-23T03:06:54;100362.06;;;15.57;100.00
32638;BME280;19045;52.268;10.506;2023-05-23T03:09:23;100367.25;;;15.53;100.00
32638;BME280;19045;52.268;10.506;2023-05-23T03:11:51;100366.75;;;15.51;100.00
32638;BME280;19045;52.268;10.506;2023-05-23T03:14:18;100370.47;;;15.55;100.00
32638;BME280;19045;52.268;10.506;2023-05-23T03:16:44;100364.91;;;15.65;100.00
32638;BME280;19045;52.268;10.506;2023-05-23T03:19:11;100374.44;;;15.63;100.00
32638;BME280;19045;52.268;10.506;2023-05-23T03:21:38;100377.13;;;15.63;100.00
32638;BME280;19045;52.268;10.506;2023-05-23T03:24:05;100379.84;;;15.63;100.00
32638;BME280;19045;52.268;10.506;2023-05-23T03:26:34;100387.81;;;15.54;100.00
32638;BME280;19045;52.268;10.506;2023-05-23T03:29:02;100380.28;;;15.51;100.00
32638;BME280;19045;52.268;10.506;2023-05-23T03:31:29;100385.00;;;15.40;100.00
32638;BME280;19045;52.268;10.506;2023-05-23T03:33:55;100392.28;;;15.40;100.00
32638;BME280;19045;52.268;10.506;2023-05-23T03:36:22;100396.31;;;15.42;100.00
32638;BME280;19045;52.268;10.506;2023-05-23T03:38:50;100385.69;;;15.51;100.00
32638;BME280;19045;52.268;10.506;2023-05-23T03:41:17;100391.84;;;15.57;100.00
32638;BME280;19045;52.268;10.506;2023-05-23T03:43:43;100400.59;;;15.48;100.00
32638;BME280;19045;52.268;10.506;2023-05-23T03:46:11;100402.53;;;15.43;100.00
32638;BME280;19045;52.268;10.506;2023-05-23T03:48:38;100400.88;;;15.47;100.00
32638;BME280;19045;52.268;10.506;2023-05-23T03:51:05;100400.66;;;15.43;100.00
32638;BME280;19045;52.268;10.506;2023-05-23T03:53:31;100401.13;;;15.50;100.00
32638;BME280;19045;52.268;10.506;2023-05-23T03:55:58;100405.31;;;15.62;100.00
32638;BME280;19045;52.268;10.506;2023-05-23T03:58:24;100406.06;;;15.67;100.00
32638;BME280;19045;52.268;10.506;2023-05-23T04:00:51;100406.66;;;15.64;100.00
32638;BME280;19045;52.268;10.506;2023-05-23T04:03:19;100408.31;;;15.60;100.00
32638;BME280;19045;52.268;10.506;2023-05-23T04:05:46;100406.34;;;15.66;100.00
32638;BME280;19045;52.268;10.506;2023-05-23T04:08:13;100408.91;;;15.57;100.00
32638;BME280;19045;52.268;10.506;2023-05-23T04:10:40;100415.19;;;15.52;100.00
32638;BME280;19045;52.268;10.506;2023-05-23T04:13:06;100415.69;;;15.55;100.00
32638;BME280;19045;52.268;10.506;2023-05-23T04:15:33;100418.22;;;15.46;100.00
32638;BME280;19045;52.268;10.506;2023-05-23T04:18:00;100410.34;;;15.49;100.00
32638;BME280;19045;52.268;10.506;2023-05-23T04:20:29;100415.28;;;15.42;100.00
32638;BME280;19045;52.268;10.506;2023-05-23T04:22:56;100421.78;;;15.41;100.00
32638;BME280;19045;52.268;10.506;2023-05-23T04:25:22;100427.31;;;15.31;100.00
32638;BME280;19045;52.268;10.506;2023-05-23T04:27:49;100423.84;;;15.26;100.00
32638;BME280;19045;52.268;10.506;2023-05-23T04:30:16;100425.00;;;15.20;100.00
32638;BME280;19045;52.268;10.506;2023-05-23T04:32:44;100418.84;;;15.38;100.00
32638;BME280;19045;52.268;10.506;2023-05-23T04:35:11;100431.25;;;15.44;100.00
32638;BME280;19045;52.268;10.506;2023-05-23T04:37:39;100427.94;;;15.47;100.00
32638;BME280;19045;52.268;10.506;2023-05-23T04:40:07;100425.25;;;15.47;100.00
32638;BME280;19045;52.268;10.506;2023-05-23T04:42:34;100434.94;;;15.53;100.00
32638;BME280;19045;52.268;10.506;2023-05-23T04:45:00;100428.22;;;15.50;100.00
32638;BME280;19045;52.268;10.506;2023-05-23T04:47:27;100425.44;;;15.56;100.00
32638;BME280;19045;52.268;10.506;2023-05-23T04:49:59;100428.88;;;15.61;100.00
32638;BME280;19045;52.268;10.506;2023-05-23T04:52:26;100429.09;;;15.65;100.00
32638;BME280;19045;52.268;10.506;2023-05-23T04:54:55;100425.75;;;15.73;100.00
32638;BME280;19045;52.268;10.506;2023-05-23T04:57:21;100430.22;;;15.64;100.00
32638;BME280;19045;52.268;10.506;2023-05-23T04:59:48;100431.97;;;15.73;100.00
32638;BME280;19045;52.268;10.506;2023-05-23T05:02:15;100431.63;;;15.80;100.00
32638;BME280;19045;52.268;10.506;2023-05-23T05:04:42;100429.41;;;15.82;100.00
32638;BME280;19045;52.268;10.506;2023-05-23T05:07:08;100439.16;;;15.83;100.00
32638;BME280;19045;52.268;10.506;2023-05-23T05:09:35;100430.53;;;15.81;100.00
32638;BME280;19045;52.268;10.506;2023-05-23T05:12:03;100421.53;;;15.85;100.00
32638;BME280;19045;52.268;10.506;2023-05-23T05:14:30;100424.25;;;15.62;100.00
32638;BME280;19045;52.268;10.506;2023-05-23T05:16:56;100427.69;;;15.48;100.00
32638;BME280;19045;52.268;10.506;2023-05-23T05:19:23;100421.72;;;15.46;100.00
32638;BME280;19045;52.268;10.506;2023-05-23T05:21:50;100422.22;;;15.54;100.00
32638;BME280;19045;52.268;10.506;2023-05-23T05:24:17;100422.78;;;15.27;100.00
32638;BME280;19045;52.268;10.506;2023-05-23T05:26:45;100427.66;;;15.25;100.00
32638;BME280;19045;52.268;10.506;2023-05-23T05:29:14;100421.50;;;15.19;100.00
32638;BME280;19045;52.268;10.506;2023-05-23T05:31:41;100417.94;;;15.24;100.00
32638;BME280;19045;52.268;10.506;2023-05-23T05:34:09;100426.75;;;15.34;100.00
32638;BME280;19045;52.268;10.506;2023-05-23T05:36:36;100423.03;;;15.25;100.00
32638;BME280;19045;52.268;10.506;2023-05-23T05:39:02;100421.66;;;15.04;100.00
32638;BME280;19045;52.268;10.506;2023-05-23T05:41:29;100427.22;;;15.18;100.00
32638;BME280;19045;52.268;10.506;2023-05-23T05:43:56;100421.53;;;15.38;100.00
32638;BME280;19045;52.268;10.506;2023-05-23T05:46:24;100419.56;;;15.48;100.00
32638;BME280;19045;52.268;10.506;2023-05-23T05:48:50;100418.34;;;15.60;100.00
32638;BME280;19045;52.268;10.506;2023-05-23T05:51:17;100431.75;;;15.70;100.00
32638;BME280;19045;52.268;10.506;2023-05-23T05:53:44;100424.25;;;15.38;100.00
32638;BME280;19045;52.268;10.506;2023-05-23T05:56:11;100430.41;;;14.96;100.00
32638;BME280;19045;52.268;10.506;2023-05-23T05:58:38;100430.19;;;15.16;100.00
32638;BME280;19045;52.268;10.506;2023-05-23T06:01:04;100435.31;;;15.18;100.00
32638;BME280;19045;52.268;10.506;2023-05-23T06:03:32;100430.81;;;15.08;100.00
32638;BME280;19045;52.268;10.506;2023-05-23T06:05:59;100430.66;;;15.23;100.00
32638;BME280;19045;52.268;10.506;2023-05-23T06:08:25;100429.84;;;15.46;100.00
32638;BME280;19045;52.268;10.506;2023-05-23T06:10:52;100431.56;;;15.61;100.00
32638;BME280;19045;52.268;10.506;2023-05-23T06:13:21;100439.50;;;15.58;100.00
32638;BME280;19045;52.268;10.506;2023-05-23T06:15:48;100441.59;;;15.37;100.00
32638;BME280;19045;52.268;10.506;2023-05-23T06:18:14;100435.97;;;15.33;100.00
32638;BME280;19045;52.268;10.506;2023-05-23T06:20:42;100436.41;;;15.40;100.00
32638;BME280;19045;52.268;10.506;2023-05-23T06:23:09;100430.78;;;15.37;100.00
32638;BME280;19045;52.268;10.506;2023-05-23T06:25:35;100437.00;;;15.14;100.00
32638;BME280;19045;52.268;10.506;2023-05-23T06:28:02;100431.22;;;15.20;100.00
32638;BME280;19045;52.268;10.506;2023-05-23T06:30:29;100425.50;;;15.22;100.00
32638;BME280;19045;52.268;10.506;2023-05-23T06:32:55;100434.41;;;14.98;100.00
32638;BME280;19045;52.268;10.506;2023-05-23T06:35:22;100432.28;;;14.95;100.00
32638;BME280;19045;52.268;10.506;2023-05-23T06:37:50;100436.72;;;14.86;100.00
32638;BME280;19045;52.268;10.506;2023-05-23T06:40:16;100440.47;;;14.90;100.00
32638;BME280;19045;52.268;10.506;2023-05-23T06:42:43;100436.44;;;14.88;100.00
32638;BME280;19045;52.268;10.506;2023-05-23T06:45:10;100431.69;;;14.75;100.00
32638;BME280;19045;52.268;10.506;2023-05-23T06:47:36;100428.69;;;14.76;100.00
32638;BME280;19045;52.268;10.506;2023-05-23T06:50:04;100428.44;;;14.73;100.00
32638;BME280;19045;52.268;10.506;2023-05-23T06:52:30;100430.88;;;14.74;100.00
32638;BME280;19045;52.268;10.506;2023-05-23T06:54:58;100428.44;;;14.73;100.00
32638;BME280;19045;52.268;10.506;2023-05-23T06:57:25;100429.03;;;14.70;100.00
32638;BME280;19045;52.268;10.506;2023-05-23T06:59:52;100418.19;;;14.70;100.00
32638;BME280;19045;52.268;10.506;2023-05-23T07:02:18;100425.88;;;14.86;100.00
32638;BME280;19045;52.268;10.506;2023-05-23T07:04:45;100429.44;;;14.82;100.00
32638;BME280;19045;52.268;10.506;2023-05-23T07:07:12;100428.19;;;14.98;100.00
32638;BME280;19045;52.268;10.506;2023-05-23T07:09:38;100425.63;;;15.12;100.00
32638;BME280;19045;52.268;10.506;2023-05-23T07:12:07;100419.38;;;15.16;100.00
32638;BME280;19045;52.268;10.506;2023-05-23T07:14:33;100429.00;;;15.27;100.00
32638;BME280;19045;52.268;10.506;2023-05-23T07:17:02;100429.88;;;15.41;100.00
32638;BME280;19045;52.268;10.506;2023-05-23T07:19:29;100428.22;;;15.50;100.00
32638;BME280;19045;52.268;10.506;2023-05-23T07:21:55;100428.59;;;15.63;100.00
32638;BME280;19045;52.268;10.506;2023-05-23T07:24:22;100434.50;;;15.65;100.00
32638;BME280;19045;52.268;10.506;2023-05-23T07:26:48;100435.09;;;15.62;100.00
32638;BME280;19045;52.268;10.506;2023-05-23T07:29:16;100430.09;;;15.50;100.00
32638;BME280;19045;52.268;10.506;2023-05-23T07:31:43;100430.44;;;15.43;100.00
32638;BME280;19045;52.268;10.506;2023-05-23T07:34:10;100432.16;;;15.34;100.00
32638;BME280;19045;52.268;10.506;2023-05-23T07:36:36;100429.84;;;15.46;100.00
32638;BME280;19045;52.268;10.506;2023-05-23T07:39:05;100426.94;;;15.38;100.00
32638;BME280;19045;52.268;10.506;2023-05-23T07:41:31;100422.06;;;15.40;100.00
32638;BME280;19045;52.268;10.506;2023-05-23T07:43:58;100432.72;;;15.31;100.00
32638;BME280;19045;52.268;10.506;2023-05-23T07:46:26;100431.94;;;15.31;100.00
32638;BME280;19045;52.268;10.506;2023-05-23T07:48:52;100431.88;;;15.36;100.00
32638;BME280;19045;52.268;10.506;2023-05-23T07:51:19;100429.47;;;15.34;100.00
32638;BME280;19045;52.268;10.506;2023-05-23T07:53:46;100438.50;;;15.48;100.00
32638;BME280;19045;52.268;10.506;2023-05-23T07:56:13;100445.78;;;15.53;100.00
32638;BME280;19045;52.268;10.506;2023-05-23T07:58:40;100434.94;;;15.53;100.00
32638;BME280;19045;52.268;10.506;2023-05-23T08:01:06;100442.84;;;15.49;100.00
32638;BME280;19045;52.268;10.506;2023-05-23T08:03:34;100441.25;;;15.43;100.00
32638;BME280;19045;52.268;10.506;2023-05-23T08:06:01;100440.44;;;15.43;100.00
32638;BME280;19045;52.268;10.506;2023-05-23T08:08:28;100443.56;;;15.55;100.00
32638;BME280;19045;52.268;10.506;2023-05-23T08:10:55;100453.59;;;15.55;100.00
32638;BME280;19045;52.268;10.506;2023-05-23T08:13:21;100457.13;;;15.55;100.00
32638;BME280;19045;52.268;10.506;2023-05-23T08:15:52;100463.09;;;15.52;100.00
32638;BME280;19045;52.268;10.506;2023-05-23T08:18:19;100458.00;;;15.50;100.00
32638;BME280;19045;52.268;10.506;2023-05-23T08:20:47;100459.25;;;15.58;100.00
32638;BME280;19045;52.268;10.506;2023-05-23T08:23:13;100463.34;;;15.56;100.00
32638;BME280;19045;52.268;10.506;2023-05-23T08:25:42;100463.78;;;15.63;100.00
32638;BME280;19045;52.268;10.506;2023-05-23T08:28:08;100465.41;;;15.64;100.00
32638;BME280;19045;52.268;10.506;2023-05-23T08:30:35;100466.78;;;15.61;100.00
32638;BME280;19045;52.268;10.506;2023-05-23T08:33:02;100464.88;;;15.62;100.00
32638;BME280;19045;52.268;10.506;2023-05-23T08:35:29;100477.69;;;15.56;100.00
32638;BME280;19045;52.268;10.506;2023-05-23T08:38:00;100477.78;;;15.46;100.00
32638;BME280;19045;52.268;10.506;2023-05-23T08:40:29;100474.31;;;15.40;100.00
32638;BME280;19045;52.268;10.506;2023-05-23T08:45:44;100491.38;;;15.41;100.00
32638;BME280;19045;52.268;10.506;2023-05-23T08:48:12;100491.81;;;15.24;100.00
32638;BME280;19045;52.268;10.506;2023-05-23T08:50:41;100499.22;;;15.14;100.00
32638;BME280;19045;52.268;10.506;2023-05-23T08:53:14;100501.72;;;15.05;100.00
32638;BME280;19045;52.268;10.506;2023-05-23T08:55:46;100501.94;;;15.14;100.00
32638;BME280;19045;52.268;10.506;2023-05-23T08:58:13;100496.63;;;15.04;100.00
32638;BME280;19045;52.268;10.506;2023-05-23T09:00:41;100508.72;;;15.11;100.00
32638;BME280;19045;52.268;10.506;2023-05-23T09:03:08;100505.97;;;15.16;100.00
32638;BME280;19045;52.268;10.506;2023-05-23T09:05:35;100516.63;;;15.02;100.00
32638;BME280;19045;52.268;10.506;2023-05-23T09:08:02;100522.28;;;15.06;100.00
32638;BME280;19045;52.268;10.506;2023-05-23T09:10:30;100526.16;;;14.95;100.00
32638;BME280;19045;52.268;10.506;2023-05-23T09:12:57;100522.84;;;15.03;100.00
32638;BME280;19045;52.268;10.506;2023-05-23T09:15:23;100526.66;;;15.02;100.00
32638;BME280;19045;52.268;10.506;2023-05-23T09:17:51;100536.97;;;14.95;100.00
32638;BME280;19045;52.268;10.506;2023-05-23T09:20:18;100541.13;;;14.82;100.00
32638;BME280;19045;52.268;10.506;2023-05-23T09:22:45;100547.88;;;14.85;100.00
32638;BME280;19045;52.268;10.506;2023-05-23T09:25:12;100550.03;;;14.88;100.00
32638;BME280;19045;52.268;10.506;2023-05-23T09:27:41;100547.03;;;14.94;100.00
32638;BME280;19045;52.268;10.506;2023-05-23T09:30:09;100537.53;;;14.97;100.00
32638;BME280;19045;52.268;10.506;2023-05-23T09:32:36;100556.69;;;15.00;100.00
32638;BME280;19045;52.268;10.506;2023-05-23T09:35:04;100545.75;;;14.82;100.00
32638;BME280;19045;52.268;10.506;2023-05-23T09:37:33;100556.03;;;14.80;100.00
32638;BME280;19045;52.268;10.506;2023-05-23T09:40:04;100557.63;;;14.86;100.00
32638;BME280;19045;52.268;10.506;2023-05-23T09:42:32;100564.91;;;14.85;100.00
32638;BME280;19045;52.268;10.506;2023-05-23T09:45:00;100560.56;;;14.89;100.00
32638;BME280;19045;52.268;10.506;2023-05-23T09:47:27;100569.66;;;15.04;100.00
32638;BME280;19045;52.268;10.506;2023-05-23T09:49:54;100562.03;;;15.11;100.00
32638;BME280;19045;52.268;10.506;2023-05-23T09:52:21;100571.22;;;15.10;100.00
32638;BME280;19045;52.268;10.506;2023-05-23T09:54:47;100567.53;;;15.00;100.00
32638;BME280;19045;52.268;10.506;2023-05-23T09:57:15;100584.16;;;14.84;100.00
32638;BME280;19045;52.268;10.506;2023-05-23T09:59:51;100582.34;;;14.69;100.00
32638;BME280;19045;52.268;10.506;2023-05-23T10:02:43;100579.44;;;14.56;100.00
32638;BME280;19045;52.268;10.506;2023-05-23T10:05:29;100583.78;;;14.57;100.00
32638;BME280;19045;52.268;10.506;2023-05-23T10:07:58;100594.91;;;14.50;100.00
32638;BME280;19045;52.268;10.506;2023-05-23T10:10:28;100587.81;;;14.59;100.00
32638;BME280;19045;52.268;10.506;2023-05-23T10:12:57;100601.88;;;14.56;100.00
32638;BME280;19045;52.268;10.506;2023-05-23T10:15:26;100600.41;;;14.35;100.00
32638;BME280;19045;52.268;10.506;2023-05-23T10:18:05;100611.50;;;14.18;100.00
32638;BME280;19045;52.268;10.506;2023-05-23T10:20:33;100615.00;;;14.24;100.00
32638;BME280;19045;52.268;10.506;2023-05-23T10:23:02;100614.22;;;14.18;100.00
32638;BME280;19045;52.268;10.506;2023-05-23T10:25:30;100615.25;;;14.22;100.00
32638;BME280;19045;52.268;10.506;2023-05-23T10:27:58;100609.34;;;14.20;100.00
32638;BME280;19045;52.268;10.506;2023-05-23T10:30:26;100617.44;;;14.20;100.00
32638;BME280;19045;52.268;10.506;2023-05-23T10:32:54;100627.72;;;14.18;100.00
32638;BME280;19045;52.268;10.506;2023-05-23T10:35:31;100626.38;;;14.06;100.00
32638;BME280;19045;52.268;10.506;2023-05-23T10:38:07;100635.88;;;13.98;100.00
32638;BME280;19045;52.268;10.506;2023-05-23T10:40:45;100640.75;;;13.91;100.00
32638;BME280;19045;52.268;10.506;2023-05-23T10:43:19;100636.69;;;13.93;100.00
32638;BME280;19045;52.268;10.506;2023-05-23T10:45:48;100634.25;;;13.97;100.00
32638;BME280;19045;52.268;10.506;2023-05-23T10:48:20;100645.06;;;13.97;100.00
32638;BME280;19045;52.268;10.506;2023-05-23T10:51:04;100657.78;;;13.91;100.00
32638;BME280;19045;52.268;10.506;2023-05-23T10:53:31;100655.88;;;13.87;100.00
32638;BME280;19045;52.268;10.506;2023-05-23T10:56:00;100662.09;;;13.82;100.00
32638;BME280;19045;52.268;10.506;2023-05-23T10:58:28;100657.25;;;13.79;100.00
32638;BME280;19045;52.268;10.506;2023-05-23T11:01:00;100660.78;;;13.75;100.00
32638;BME280;19045;52.268;10.506;2023-05-23T11:03:31;100662.13;;;13.62;100.00
32638;BME280;19045;52.268;10.506;2023-05-23T11:05:59;100673.75;;;13.68;100.00
32638;BME280;19045;52.268;10.506;2023-05-23T11:08:28;100671.03;;;13.58;100.00
32638;BME280;19045;52.268;10.506;2023-05-23T11:11:02;100680.22;;;13.52;100.00
32638;BME280;19045;52.268;10.506;2023-05-23T11:13:54;100677.25;;;13.58;100.00
32638;BME280;19045;52.268;10.506;2023-05-23T11:16:24;100678.59;;;13.51;100.00
32638;BME280;19045;52.268;10.506;2023-05-23T11:18:51;100682.66;;;13.48;100.00
32638;BME280;19045;52.268;10.506;2023-05-23T11:21:23;100683.16;;;13.30;100.00
32638;BME280;19045;52.268;10.506;2023-05-23T11:23:53;100685.59;;;13.46;100.00
32638;BME280;19045;52.268;10.506;2023-05-23T11:26:29;100695.31;;;13.53;100.00
32638;BME280;19045;52.268;10.506;2023-05-23T11:28:58;100695.31;;;13.32;100.00
32638;BME280;19045;52.268;10.506;2023-05-23T11:31:25;100698.56;;;13.39;100.00
32638;BME280;19045;52.268;10.506;2023-05-23T11:33:52;100701.00;;;13.51;100.00
32638;BME280;19045;52.268;10.506;2023-05-23T11:36:20;100711.50;;;13.53;100.00
32638;BME280;19045;52.268;10.506;2023-05-23T11:38:48;100708.03;;;13.42;100.00
32638;BME280;19045;52.268;10.506;2023-05-23T11:41:16;100713.69;;;13.40;100.00
32638;BME280;19045;52.268;10.506;2023-05-23T11:43:49;100722.28;;;13.27;100.00
32638;BME280;19045;52.268;10.506;2023-05-23T11:46:16;100722.03;;;13.29;100.00
32638;BME280;19045;52.268;10.506;2023-05-23T11:48:44;100734.47;;;13.35;100.00
32638;BME280;19045;52.268;10.506;2023-05-23T11:51:10;100736.56;;;13.23;100.00
32638;BME280;19045;52.268;10.506;2023-05-23T11:53:37;100758.44;;;13.26;100.00
32638;BME280;19045;52.268;10.506;2023-05-23T11:56:04;100752.19;;;13.16;100.00
32638;BME280;19045;52.268;10.506;2023-05-23T11:58:33;100752.13;;;13.01;100.00
32638;BME280;19045;52.268;10.506;2023-05-23T12:01:00;100749.44;;;13.01;100.00
32638;BME280;19045;52.268;10.506;2023-05-23T12:03:27;100745.69;;;13.02;100.00
32638;BME280;19045;52.268;10.506;2023-05-23T12:05:54;100753.19;;;13.00;100.00
32638;BME280;19045;52.268;10.506;2023-05-23T12:08:20;100741.06;;;12.92;100.00
32638;BME280;19045;52.268;10.506;2023-05-23T12:10:50;100756.63;;;12.80;100.00
32638;BME280;19045;52.268;10.506;2023-05-23T12:13:17;100755.31;;;12.87;100.00
32638;BME280;19045;52.268;10.506;2023-05-23T12:15:46;100764.50;;;12.91;100.00
32638;BME280;19045;52.268;10.506;2023-05-23T12:18:13;100760.75;;;13.03;100.00
32638;BME280;19045;52.268;10.506;2023-05-23T12:20:40;100760.03;;;13.17;100.00
32638;BME280;19045;52.268;10.506;2023-05-23T12:23:06;100771.38;;;13.19;100.00
32638;BME280;19045;52.268;10.506;2023-05-23T12:25:37;100769.47;;;13.20;100.00
32638;BME280;19045;52.268;10.506;2023-05-23T12:28:05;100777.84;;;13.23;100.00
32638;BME280;19045;52.268;10.506;2023-05-23T12:30:40;100782.69;;;13.11;100.00
32638;BME280;19045;52.268;10.506;2023-05-23T12:33:08;100792.34;;;13.07;100.00
32638;BME280;19045;52.268;10.506;2023-05-23T12:35:36;100789.88;;;12.95;100.00
32638;BME280;19045;52.268;10.506;2023-05-23T12:38:05;100791.25;;;13.03;100.00